Time;durP1;ratioP1;P1;durP2;ratioP2;P2;SDS_P1;SDS_P2;PMS_P1;PMS_P2;Temp;Humidity;BMP_temperature;BMP_pressure;BME280_temperature;BME280_humidity;BME280_pressure;Samples;Min_cycle;Max_cycle;Signal;HPM_P1;HPM_P2
2022/05/13 00:01:06;;;;;;;8.27;1.73;;;;;;;13.95;57.01;101849.03;5038302;28;20653;-45
2022/05/13 00:03:31;;;;;;;8.73;2.00;;;;;;;13.93;57.08;101855.84;5037268;28;20017;-45
2022/05/13 00:05:57;;;;;;;10.80;1.92;;;;;;;13.90;57.46;101855.75;5038752;28;20047;-45
2022/05/13 00:08:22;;;;;;;6.40;1.48;;;;;;;13.89;57.70;101855.69;5039586;28;20036;-45
2022/05/13 00:10:48;;;;;;;9.63;1.83;;;;;;;13.83;58.21;101863.25;5038983;28;20108;-45
2022/05/13 00:13:13;;;;;;;10.10;2.05;;;;;;;13.81;58.85;101863.22;5041442;28;20071;-45
2022/05/13 00:15:44;;;;;;;7.90;1.65;;;;;;;13.75;58.79;101851.81;5038189;28;20025;-48
2022/05/13 00:18:10;;;;;;;10.07;1.98;;;;;;;13.73;58.75;101849.19;5041647;28;20028;-45
2022/05/13 00:20:37;;;;;;;8.80;1.85;;;;;;;13.68;59.03;101846.47;5040605;28;20761;-48
2022/05/13 00:23:03;;;;;;;8.35;2.05;;;;;;;13.65;59.02;101843.78;5038899;28;20032;-45
2022/05/13 00:25:32;;;;;;;8.93;2.00;;;;;;;13.63;59.11;101845.44;5041279;28;20047;-45
2022/05/13 00:27:59;;;;;;;14.27;2.35;;;;;;;13.61;59.34;101852.28;5039588;28;20477;-45
2022/05/13 00:30:27;;;;;;;7.43;2.05;;;;;;;13.61;59.05;101847.09;5032722;28;20049;-45
2022/05/13 00:32:53;;;;;;;9.77;2.05;;;;;;;13.54;59.65;101846.88;5037362;28;20036;-47
2022/05/13 00:35:20;;;;;;;12.68;2.40;;;;;;;13.49;59.79;101851.88;5040989;28;20037;-44
2022/05/13 00:37:45;;;;;;;7.90;1.63;;;;;;;13.47;59.87;101847.47;5038618;28;20032;-45
2022/05/13 00:40:12;;;;;;;13.68;2.03;;;;;;;13.47;59.74;101842.31;5038703;28;20055;-45
2022/05/13 00:42:37;;;;;;;9.88;2.13;;;;;;;13.41;60.06;101843.03;5038434;28;21073;-45
2022/05/13 00:45:03;;;;;;;7.50;2.15;;;;;;;13.41;59.82;101849.06;5039396;28;20033;-48
2022/05/13 00:47:29;;;;;;;8.85;1.70;;;;;;;13.32;60.73;101843.59;5039546;28;20036;-45
2022/05/13 00:49:55;;;;;;;9.15;2.00;;;;;;;13.31;60.06;101848.72;5040442;28;20029;-45
2022/05/13 00:52:21;;;;;;;7.28;2.10;;;;;;;13.30;59.92;101841.78;5039849;28;20648;-45
2022/05/13 00:54:47;;;;;;;10.90;2.10;;;;;;;13.25;60.45;101840.75;5040944;28;20047;-45
2022/05/13 00:57:12;;;;;;;10.73;2.10;;;;;;;13.19;60.42;101843.97;5038822;28;20409;-46
2022/05/13 00:59:41;;;;;;;8.80;2.30;;;;;;;13.19;60.47;101846.56;5040614;28;20090;-45
2022/05/13 01:02:08;;;;;;;9.20;1.95;;;;;;;13.21;60.35;101844.94;5044125;28;20021;-46
2022/05/13 01:04:35;;;;;;;8.82;2.65;;;;;;;13.18;60.12;101834.50;5038803;28;20422;-46
2022/05/13 01:07:06;;;;;;;10.68;1.92;;;;;;;13.14;60.63;101845.53;5042456;28;20496;-45
2022/05/13 01:09:36;;;;;;;13.10;2.20;;;;;;;13.09;60.59;101840.22;5040738;28;20024;-49
2022/05/13 01:12:08;;;;;;;9.35;2.03;;;;;;;13.09;60.40;101832.47;5042650;28;20032;-46
2022/05/13 01:14:41;;;;;;;11.00;2.25;;;;;;;13.12;60.22;101835.16;5037847;28;20055;-45
2022/05/13 01:20:24;;;;;;;5.35;2.15;;;;;;;13.04;60.71;101827.97;5035885;28;20117;-47
2022/05/13 01:22:56;;;;;;;11.25;2.20;;;;;;;13.04;60.81;101828.88;5034822;28;20032;-45
2022/05/13 01:25:24;;;;;;;10.60;2.28;;;;;;;13.02;61.24;101842.53;5035999;28;20035;-45
2022/05/13 01:27:51;;;;;;;11.85;2.38;;;;;;;12.98;61.30;101832.94;5038273;28;20032;-46
2022/05/13 01:30:29;;;;;;;7.65;2.47;;;;;;;12.94;61.67;101828.50;5038891;28;20045;-44
2022/05/13 01:32:55;;;;;;;9.73;2.25;;;;;;;12.92;62.01;101832.72;5037095;28;20132;-46
2022/05/13 01:35:21;;;;;;;5.63;2.20;;;;;;;12.86;61.75;101831.72;5038131;28;20750;-45
2022/05/13 01:37:47;;;;;;;11.68;2.60;;;;;;;12.76;62.29;101827.06;5032200;28;20033;-45
2022/05/13 01:40:13;;;;;;;9.13;2.53;;;;;;;12.88;62.38;101829.19;5038395;28;20405;-44
2022/05/13 01:42:38;;;;;;;9.15;2.58;;;;;;;12.87;62.31;101835.16;5037146;28;20108;-45
2022/05/13 01:45:07;;;;;;;8.70;2.50;;;;;;;12.86;61.85;101830.81;5037445;28;20059;-47
2022/05/13 01:47:32;;;;;;;7.00;2.20;;;;;;;12.82;61.90;101832.44;5035867;28;20110;-45
2022/05/13 01:49:58;;;;;;;9.38;2.55;;;;;;;12.80;61.90;101841.84;5038236;28;20079;-46
2022/05/13 01:52:23;;;;;;;10.90;2.55;;;;;;;12.82;62.52;101836.72;5042113;28;20074;-47
2022/05/13 01:54:49;;;;;;;8.23;2.20;;;;;;;12.87;61.75;101837.75;5037817;28;20040;-45
2022/05/13 01:57:15;;;;;;;9.63;2.28;;;;;;;12.82;62.13;101839.28;5035671;28;20039;-45
2022/05/13 01:59:41;;;;;;;6.78;2.15;;;;;;;12.77;62.08;101835.66;5037978;28;20033;-46
2022/05/13 02:02:07;;;;;;;9.45;2.47;;;;;;;12.76;61.70;101839.97;5042318;28;20127;-45
2022/05/13 02:04:32;;;;;;;8.23;2.10;;;;;;;12.80;61.64;101835.75;5041997;28;20032;-45
2022/05/13 02:06:58;;;;;;;8.25;2.15;;;;;;;12.83;61.20;101831.59;5041641;28;20029;-46
2022/05/13 02:09:23;;;;;;;9.30;1.90;;;;;;;12.85;61.43;101829.94;5042607;28;20413;-46
2022/05/13 02:11:49;;;;;;;7.93;2.00;;;;;;;12.80;61.24;101835.75;5036480;28;20107;-45
2022/05/13 02:14:16;;;;;;;12.98;2.30;;;;;;;12.80;61.79;101831.50;5039792;28;20032;-45
2022/05/13 02:16:41;;;;;;;5.28;2.00;;;;;;;12.84;61.22;101828.19;5041146;28;20103;-45
2022/05/13 02:19:07;;;;;;;7.18;2.45;;;;;;;12.83;60.88;101820.41;5040474;28;20070;-46
2022/05/13 02:21:32;;;;;;;13.00;2.53;;;;;;;12.78;61.34;101822.81;5044408;28;20037;-47
2022/05/13 02:23:58;;;;;;;9.23;2.00;;;;;;;12.75;61.30;101827.00;5041841;28;20047;-47
2022/05/13 02:26:23;;;;;;;8.18;2.15;;;;;;;12.78;61.22;101832.25;5024701;28;20041;-45
2022/05/13 02:28:49;;;;;;;11.10;2.28;;;;;;;12.79;61.19;101828.84;5041485;28;20112;-47
2022/05/13 02:31:16;;;;;;;8.88;2.42;;;;;;;12.71;61.30;101831.19;5042239;28;20134;-46
2022/05/13 02:33:42;;;;;;;7.15;2.78;;;;;;;12.79;61.68;101831.44;5041528;28;20528;-45
2022/05/13 02:36:09;;;;;;;7.53;2.08;;;;;;;12.79;61.84;101836.59;5040273;28;20510;-44
2022/05/13 02:38:35;;;;;;;8.80;2.30;;;;;;;12.77;61.59;101827.94;5042448;28;20489;-45
2022/05/13 02:41:13;;;;;;;9.77;2.40;;;;;;;12.75;62.00;101827.00;5041185;28;20582;-45
2022/05/13 02:43:39;;;;;;;8.23;2.58;;;;;;;12.72;62.10;101838.09;5040179;28;20167;-47
2022/05/13 02:46:05;;;;;;;7.38;2.50;;;;;;;12.70;62.24;101818.22;5037204;28;20650;-46
2022/05/13 02:48:31;;;;;;;10.27;2.40;;;;;;;12.75;62.33;101821.84;5042448;28;20037;-45
2022/05/13 02:50:56;;;;;;;7.15;2.38;;;;;;;12.72;62.46;101824.31;5043973;28;20074;-45
2022/05/13 02:53:22;;;;;;;13.43;2.80;;;;;;;12.73;62.50;101824.34;5041100;28;20052;-46
2022/05/13 02:55:48;;;;;;;11.07;2.17;;;;;;;12.80;62.44;101820.28;5041056;28;20489;-45
2022/05/13 02:58:13;;;;;;;10.05;2.75;;;;;;;12.77;62.89;101826.22;5042006;28;20039;-46
2022/05/13 03:00:39;;;;;;;16.33;3.40;;;;;;;12.75;62.76;101827.88;5038886;28;20044;-45
2022/05/13 03:03:05;;;;;;;9.75;2.63;;;;;;;12.81;62.89;101827.22;5041111;28;20032;-45
2022/05/13 03:05:32;;;;;;;8.77;2.80;;;;;;;12.75;63.41;101821.84;5039387;28;20044;-45
2022/05/13 03:08:01;;;;;;;10.85;2.70;;;;;;;12.77;63.39;101826.22;5041343;28;20499;-44
2022/05/13 03:10:28;;;;;;;12.02;2.92;;;;;;;12.79;63.64;101828.84;5041545;28;20021;-45
2022/05/13 03:12:53;;;;;;;12.02;2.95;;;;;;;12.75;63.83;101827.88;5041221;28;20108;-45
2022/05/13 03:15:19;;;;;;;10.50;2.95;;;;;;;12.73;64.28;101824.34;5039157;28;20721;-48
2022/05/13 03:17:44;;;;;;;9.32;2.55;;;;;;;12.73;64.77;101821.78;5043676;28;20095;-47
2022/05/13 03:20:14;;;;;;;10.02;2.97;;;;;;;12.74;64.15;101820.06;5039424;28;20036;-46
2022/05/13 03:22:40;;;;;;;12.40;3.20;;;;;;;12.68;64.41;101818.19;5039786;28;20773;-48
2022/05/13 03:25:06;;;;;;;13.25;3.80;;;;;;;12.67;64.95;101808.66;5040527;28;20063;-46
2022/05/13 03:27:31;;;;;;;9.70;2.75;;;;;;;12.74;64.41;101809.75;5039773;28;20043;-47
2022/05/13 03:29:57;;;;;;;12.38;3.33;;;;;;;12.74;64.57;101817.47;5051000;28;20041;-46
2022/05/13 03:32:22;;;;;;;14.18;3.03;;;;;;;12.69;64.46;101809.59;5040612;28;20056;-47
2022/05/13 03:34:48;;;;;;;12.57;3.30;;;;;;;12.71;64.58;101812.22;5038949;28;20037;-49
2022/05/13 03:37:13;;;;;;;12.55;3.05;;;;;;;12.66;64.90;101818.94;5040978;28;20099;-50
2022/05/13 03:39:38;;;;;;;13.98;3.35;;;;;;;12.61;65.56;101819.63;5040776;28;20040;-52
2022/05/13 03:42:04;;;;;;;11.52;3.33;;;;;;;12.67;65.34;101818.09;5040364;28;20052;-46
2022/05/13 03:44:31;;;;;;;12.38;3.60;;;;;;;12.65;65.19;101820.63;5037307;28;20029;-53
2022/05/13 03:46:57;;;;;;;11.07;3.58;;;;;;;12.57;65.67;101825.53;5036734;28;20118;-52
2022/05/13 03:49:22;;;;;;;13.98;3.17;;;;;;;12.56;65.54;101825.50;5038171;28;20100;-52
2022/05/13 03:51:47;;;;;;;12.85;3.33;;;;;;;12.52;65.97;101823.63;5041232;28;20540;-50
2022/05/13 03:54:13;;;;;;;17.13;3.70;;;;;;;12.48;66.04;101817.47;5034688;28;20041;-52
2022/05/13 03:56:38;;;;;;;12.90;3.42;;;;;;;12.51;66.27;101817.59;5036069;28;20867;-51
2022/05/13 03:59:04;;;;;;;11.18;3.28;;;;;;;12.52;66.26;101823.63;5037381;28;20041;-48
2022/05/13 04:01:29;;;;;;;13.48;3.80;;;;;;;12.52;66.67;101833.94;5040695;28;20037;-53
2022/05/13 04:03:55;;;;;;;10.57;3.33;;;;;;;12.51;66.42;101817.59;5037715;28;20037;-53
2022/05/13 04:09:05;;;;;;;15.07;3.47;;;;;;;12.44;67.07;101822.47;5039647;28;20136;-46
2022/05/13 04:11:34;;;;;;;12.70;3.60;;;;;;;12.46;67.13;101825.97;5038943;28;20025;-52
2022/05/13 04:16:44;;;;;;;13.70;3.55;;;;;;;12.46;67.38;101829.44;5039349;28;20066;-51
2022/05/13 04:19:11;;;;;;;14.00;4.20;;;;;;;12.44;67.45;101822.47;5037039;28;20488;-48
2022/05/13 04:21:38;;;;;;;18.52;4.10;;;;;;;12.44;67.63;101823.34;5037889;28;20511;-53
2022/05/13 04:24:07;;;;;;;16.50;4.05;;;;;;;12.46;67.81;101825.97;5039493;28;20024;-52
2022/05/13 04:26:32;;;;;;;12.25;4.10;;;;;;;12.44;67.76;101825.94;5039187;28;20070;-45
2022/05/13 04:28:59;;;;;;;14.95;3.67;;;;;;;12.43;67.93;101823.28;5031552;28;20485;-53
2022/05/13 04:31:28;;;;;;;14.35;4.20;;;;;;;12.45;68.13;101825.09;5038107;28;20021;-52
2022/05/13 04:33:55;;;;;;;15.73;4.18;;;;;;;12.45;68.29;101834.56;5038393;28;20067;-53
2022/05/13 04:36:21;;;;;;;11.80;4.15;;;;;;;12.46;68.19;101839.75;5039732;28;20511;-48
2022/05/13 04:38:47;;;;;;;16.98;4.03;;;;;;;12.44;68.47;101836.25;5038229;28;20036;-52
2022/05/13 04:43:59;;;;;;;14.52;3.90;;;;;;;12.46;68.37;101857.81;5038777;28;20075;-52
2022/05/13 04:46:25;;;;;;;15.70;4.55;;;;;;;12.48;68.71;101851.00;5038884;28;20052;-47
2022/05/13 04:48:51;;;;;;;16.65;4.32;;;;;;;12.56;68.31;101852.16;5038825;28;20083;-47
2022/05/13 04:51:19;;;;;;;11.85;3.83;;;;;;;12.60;68.15;101850.56;5038631;28;20459;-48
2022/05/13 04:53:47;;;;;;;12.88;3.72;;;;;;;12.66;68.32;101849.91;5038203;28;20120;-53
2022/05/13 04:56:13;;;;;;;14.48;4.00;;;;;;;12.66;68.17;101865.38;5037385;28;20041;-52
2022/05/13 04:58:38;;;;;;;18.20;4.30;;;;;;;12.69;68.31;101868.09;5037833;28;20029;-52
2022/05/13 05:01:06;;;;;;;13.43;3.90;;;;;;;12.68;68.22;101863.72;5032451;28;20037;-49
2022/05/13 05:03:32;;;;;;;12.05;4.00;;;;;;;12.71;68.40;101866.44;5036801;28;20032;-52
2022/05/13 05:05:59;;;;;;;15.68;4.25;;;;;;;12.74;68.40;101869.09;5037740;28;20700;-51
2022/05/13 05:08:26;;;;;;;13.63;4.30;;;;;;;12.74;68.38;101867.44;5038312;28;20043;-49
2022/05/13 05:10:52;;;;;;;10.55;3.67;;;;;;;12.77;68.01;101869.22;5037926;28;20534;-52
2022/05/13 05:13:23;;;;;;;14.90;4.13;;;;;;;12.80;68.40;101870.22;5037835;28;20032;-52
2022/05/13 05:15:49;;;;;;;14.25;4.50;;;;;;;12.82;68.44;101873.72;5038702;28;20063;-47
2022/05/13 05:18:15;;;;;;;17.70;4.20;;;;;;;12.84;68.19;101877.22;5038182;28;20515;-49
2022/05/13 05:20:42;;;;;;;20.05;4.40;;;;;;;12.83;68.42;101872.88;5037477;28;21085;-48
2022/05/13 05:23:13;;;;;;;16.77;4.93;;;;;;;12.89;68.33;101882.56;5037853;28;20036;-47
2022/05/13 05:25:39;;;;;;;15.98;4.43;;;;;;;12.91;68.43;101880.91;5041237;28;20028;-51
2022/05/13 05:28:04;;;;;;;15.05;4.13;;;;;;;12.92;68.66;101889.50;5039628;28;20033;-48
2022/05/13 05:30:30;;;;;;;14.57;4.03;;;;;;;12.93;68.49;101892.19;5037194;28;20086;-48
2022/05/13 05:32:55;;;;;;;19.00;4.53;;;;;;;12.90;69.17;101897.22;5039075;28;20032;-52
2022/05/13 05:35:23;;;;;;;14.05;4.07;;;;;;;12.97;69.02;101899.19;5033136;28;20040;-53
2022/05/13 05:37:49;;;;;;;17.27;4.45;;;;;;;12.94;68.59;101904.25;5037284;28;21637;-49
2022/05/13 05:40:14;;;;;;;14.75;4.32;;;;;;;12.97;68.60;101901.75;5038126;28;20505;-51
2022/05/13 05:42:41;;;;;;;15.18;3.72;;;;;;;12.99;68.46;101913.03;5039320;28;20082;-52
2022/05/13 05:45:10;;;;;;;14.07;4.68;;;;;;;13.01;68.78;101919.13;5038644;28;20033;-49
2022/05/13 05:47:36;;;;;;;14.55;4.65;;;;;;;13.01;68.92;101913.97;5037585;28;20516;-53
2022/05/13 05:50:05;;;;;;;15.07;4.68;;;;;;;13.03;69.54;101922.63;5039063;28;20032;-45
2022/05/13 05:52:30;;;;;;;16.60;4.45;;;;;;;13.05;69.02;101922.72;5040188;28;20032;-52
2022/05/13 05:57:40;;;;;;;15.07;4.50;;;;;;;13.14;69.42;101928.16;5036060;28;20056;-53
2022/05/13 06:00:07;;;;;;;15.98;4.20;;;;;;;13.18;69.42;101931.75;5036972;28;20033;-52
2022/05/13 06:02:33;;;;;;;20.15;4.72;;;;;;;13.22;68.87;101928.47;5037622;28;20041;-45
2022/05/13 06:04:59;;;;;;;15.85;4.88;;;;;;;13.26;68.93;101932.91;5037663;28;20123;-48
2022/05/13 06:07:26;;;;;;;13.82;4.22;;;;;;;13.30;68.92;101922.75;5034157;28;20037;-50
2022/05/13 06:09:52;;;;;;;18.50;4.70;;;;;;;13.31;69.04;101926.19;5026649;28;20029;-46
2022/05/13 06:12:18;;;;;;;14.55;4.22;;;;;;;13.38;68.48;101934.19;5030883;28;20098;-52
2022/05/13 06:14:43;;;;;;;12.02;4.70;;;;;;;13.43;68.80;101936.94;5031675;28;20129;-50
2022/05/13 06:17:09;;;;;;;16.75;4.85;;;;;;;13.49;68.98;101937.16;5033909;28;20048;-49
2022/05/13 06:19:35;;;;;;;14.70;4.43;;;;;;;13.50;68.69;101941.50;5035236;28;20082;-49
2022/05/13 06:22:00;;;;;;;16.88;5.00;;;;;;;13.56;68.52;101953.72;5027859;28;20056;-49
2022/05/13 06:24:26;;;;;;;12.82;4.65;;;;;;;13.62;68.45;101949.66;5034904;28;20037;-52
2022/05/13 06:26:51;;;;;;;12.88;4.72;;;;;;;13.62;68.80;101949.66;5035060;28;20040;-52
2022/05/13 06:29:22;;;;;;;19.23;5.28;;;;;;;13.68;68.61;101947.25;5034783;28;20080;-47
2022/05/13 06:31:47;;;;;;;19.60;5.13;;;;;;;13.73;68.83;101957.75;5032126;28;20108;-51
2022/05/13 06:34:14;;;;;;;18.15;5.72;;;;;;;13.78;68.60;101955.31;5034468;28;20123;-50
2022/05/13 06:36:40;;;;;;;18.98;6.00;;;;;;;13.82;68.68;101967.50;5034833;28;20029;-52
2022/05/13 06:39:06;;;;;;;15.52;5.65;;;;;;;13.86;68.44;101961.63;5038954;28;20514;-48
2022/05/13 06:41:37;;;;;;;16.67;5.47;;;;;;;13.87;68.56;101972.00;5034868;28;20036;-49
2022/05/13 06:44:04;;;;;;;15.63;5.25;;;;;;;13.94;68.60;101965.31;5030133;28;20417;-50
2022/05/13 06:46:29;;;;;;;18.13;6.00;;;;;;;14.03;68.15;101970.78;5040883;28;20456;-53
2022/05/13 06:48:55;;;;;;;17.45;5.68;;;;;;;14.14;68.42;101968.53;5037639;28;20043;-50
2022/05/13 06:51:20;;;;;;;17.33;5.97;;;;;;;14.16;68.26;101967.75;5044272;28;20095;-56
2022/05/13 06:53:46;;;;;;;19.17;5.55;;;;;;;14.27;68.12;101967.22;5044112;28;20033;-52
2022/05/13 06:56:12;;;;;;;13.88;5.40;;;;;;;14.35;67.79;101968.31;5040653;28;20474;-53
2022/05/13 06:58:37;;;;;;;20.60;5.65;;;;;;;14.45;67.77;101955.69;5038880;28;20123;-51
2022/05/13 07:01:03;;;;;;;18.10;5.60;;;;;;;14.55;68.31;101962.03;5037248;28;20170;-46
2022/05/13 07:03:28;;;;;;;19.00;5.82;;;;;;;14.61;67.70;101966.50;5041066;28;20096;-51
2022/05/13 07:05:54;;;;;;;17.42;5.88;;;;;;;14.65;67.49;101970.97;5038747;28;20530;-53
2022/05/13 07:08:19;;;;;;;18.13;5.57;;;;;;;14.75;67.12;101965.22;5039222;28;20522;-54
2022/05/13 07:10:45;;;;;;;17.45;5.85;;;;;;;14.81;66.90;101980.94;5038971;28;20125;-51
2022/05/13 07:13:12;;;;;;;15.80;5.20;;;;;;;14.86;66.29;101976.72;5038613;28;20128;-49
2022/05/13 07:15:38;;;;;;;20.33;5.40;;;;;;;14.96;66.37;101965.81;5039593;28;20025;-49
2022/05/13 07:18:04;;;;;;;15.13;5.25;;;;;;;15.15;65.94;101963.72;5037048;28;20485;-48
2022/05/13 07:20:29;;;;;;;15.82;4.90;;;;;;;15.35;65.36;101970.31;5040242;28;20128;-50
2022/05/13 07:22:56;;;;;;;19.42;5.32;;;;;;;15.42;64.40;101963.59;5040888;28;20554;-51
2022/05/13 07:25:21;;;;;;;16.30;5.15;;;;;;;15.45;64.21;101961.91;5044081;28;20021;-52
2022/05/13 07:27:47;;;;;;;12.80;4.38;;;;;;;15.55;63.19;101968.22;5041137;28;20051;-52
2022/05/13 07:30:13;;;;;;;15.73;4.90;;;;;;;15.62;63.23;101969.25;5044575;28;20045;-52
2022/05/13 07:32:38;;;;;;;15.15;4.60;;;;;;;15.65;63.42;101965.06;5039369;28;20036;-48
2022/05/13 07:35:05;;;;;;;16.45;4.80;;;;;;;15.69;63.11;101966.00;5027209;28;20037;-51
2022/05/13 07:37:30;;;;;;;18.25;4.70;;;;;;;15.79;62.60;101975.78;5041118;28;20041;-53
2022/05/13 07:42:39;;;;;;;13.13;4.43;;;;;;;15.82;62.20;101976.72;5038292;28;20543;-51
2022/05/13 07:45:06;;;;;;;12.55;4.28;;;;;;;15.76;62.13;101978.28;5035942;28;20021;-52
2022/05/13 07:47:32;;;;;;;15.52;3.85;;;;;;;15.79;62.38;101978.38;5038200;28;20033;-46
2022/05/13 07:49:57;;;;;;;14.75;4.03;;;;;;;15.85;61.66;101982.84;5047583;28;20032;-49
2022/05/13 07:52:24;;;;;;;12.52;3.78;;;;;;;15.85;61.88;101988.03;5039518;28;20074;-45
2022/05/13 07:54:50;;;;;;;15.95;3.80;;;;;;;15.79;61.63;101987.03;5039784;28;20496;-52
2022/05/13 07:57:15;;;;;;;16.15;4.05;;;;;;;15.71;62.30;101985.97;5040154;28;20021;-49
2022/05/13 08:02:25;;;;;;;11.88;3.63;;;;;;;15.66;62.25;101982.38;5042219;28;20672;-52
2022/05/13 08:04:50;;;;;;;14.07;4.47;;;;;;;15.63;62.57;101981.41;5045657;28;20033;-52
2022/05/13 08:07:16;;;;;;;14.63;3.78;;;;;;;15.63;61.96;101990.06;5050031;28;20061;-52
2022/05/13 08:09:41;;;;;;;12.63;4.05;;;;;;;15.57;62.23;102000.25;5052722;28;20025;-51
2022/05/13 08:12:07;;;;;;;12.65;3.30;;;;;;;15.55;62.81;101995.03;5048133;28;20036;-52
2022/05/13 08:14:33;;;;;;;15.93;4.40;;;;;;;15.56;62.41;101999.38;5051105;28;20029;-50
2022/05/13 08:16:58;;;;;;;12.90;3.45;;;;;;;15.55;62.42;102004.53;5053284;28;20037;-50
2022/05/13 08:19:23;;;;;;;12.27;3.05;;;;;;;15.54;61.57;102002.78;5048289;28;20051;-51
2022/05/13 08:21:49;;;;;;;7.72;2.97;;;;;;;15.55;61.49;102009.72;5050086;28;20064;-52
2022/05/13 08:24:14;;;;;;;12.82;3.22;;;;;;;15.59;61.70;102000.28;5053315;28;20052;-47
2022/05/13 08:26:39;;;;;;;13.80;3.17;;;;;;;15.66;62.20;102012.63;5039977;28;20036;-51
2022/05/13 08:29:05;;;;;;;13.07;3.60;;;;;;;15.69;61.70;102000.59;5050277;28;20036;-53
2022/05/13 08:31:30;;;;;;;11.18;3.05;;;;;;;15.72;61.46;102002.41;5047571;28;20083;-48
2022/05/13 08:33:56;;;;;;;12.10;3.42;;;;;;;15.74;61.93;102006.78;5051004;28;20091;-52
2022/05/13 08:36:21;;;;;;;12.02;3.15;;;;;;;15.83;62.39;102008.69;5047484;28;20041;-52
2022/05/13 08:38:49;;;;;;;10.73;3.03;;;;;;;15.88;61.58;102001.91;5048984;28;20067;-51
2022/05/13 08:41:24;;;;;;;10.05;2.60;;;;;;;15.90;60.87;102008.03;5049542;28;20098;-51
2022/05/13 08:44:01;;;;;;;11.05;2.80;;;;;;;15.90;60.29;102005.44;5038758;28;20119;-53
2022/05/13 08:46:36;;;;;;;10.05;2.83;;;;;;;15.90;60.29;102010.63;5041733;28;20496;-49
2022/05/13 08:49:21;;;;;;;10.85;3.00;;;;;;;15.91;60.78;102009.78;5046322;28;20028;-53
2022/05/13 08:51:56;;;;;;;12.27;2.90;;;;;;;15.89;60.95;102011.44;5044590;28;20033;-47
2022/05/13 08:54:26;;;;;;;17.05;3.13;;;;;;;15.82;60.07;102019.94;5041421;28;20039;-49
2022/05/13 08:56:59;;;;;;;11.32;2.97;;;;;;;15.77;59.73;102032.81;5043876;28;20544;-52
2022/05/13 08:59:31;;;;;;;12.18;2.83;;;;;;;15.72;60.11;102029.22;5041727;28;20028;-51
2022/05/13 09:02:03;;;;;;;9.85;2.45;;;;;;;15.75;60.29;102033.59;5047614;28;20029;-51
2022/05/13 09:04:43;;;;;;;10.30;2.72;;;;;;;15.79;59.92;102020.75;5051163;28;20036;-49
2022/05/13 09:07:18;;;;;;;12.55;2.72;;;;;;;15.88;59.88;102021.78;5047516;28;20040;-52
2022/05/13 09:09:47;;;;;;;8.15;2.15;;;;;;;15.99;59.36;102021.22;5044632;28;20017;-52
2022/05/13 09:12:31;;;;;;;11.32;2.58;;;;;;;16.21;59.09;102021.75;5044835;28;20036;-48
2022/05/13 09:15:09;;;;;;;8.13;2.38;;;;;;;16.35;57.86;102008.22;5042280;28;20029;-52
2022/05/13 09:17:43;;;;;;;9.63;2.20;;;;;;;16.51;57.46;102018.97;5041178;28;20104;-50
2022/05/13 09:20:18;;;;;;;10.30;2.50;;;;;;;16.58;57.15;102016.53;5045024;28;20029;-49
2022/05/13 09:22:52;;;;;;;11.45;2.25;;;;;;;16.60;57.14;102026.94;5048677;28;20028;-53
2022/05/13 09:25:21;;;;;;;8.23;2.13;;;;;;;16.82;56.91;102021.41;5048613;28;20919;-52
2022/05/13 09:27:56;;;;;;;13.15;2.33;;;;;;;17.03;56.88;102026.16;5046224;28;20025;-48
2022/05/13 09:30:25;;;;;;;9.73;2.30;;;;;;;17.18;55.33;102020.41;5046555;28;20073;-51
2022/05/13 09:32:50;;;;;;;9.75;2.17;;;;;;;17.33;53.72;102030.19;5042468;28;20086;-52
2022/05/13 09:35:39;;;;;;;8.38;2.20;;;;;;;17.47;54.02;102036.50;5044071;28;20397;-49
2022/05/13 09:38:23;;;;;;;8.15;2.17;;;;;;;17.63;53.16;102035.06;5045188;28;20433;-52
2022/05/13 09:41:25;;;;;;;7.05;1.92;;;;;;;17.71;53.17;102028.28;5043889;28;20029;-52
2022/05/13 09:43:53;;;;;;;10.07;1.73;;;;;;;17.59;51.00;102035.88;5045332;28;20033;-53
2022/05/13 09:46:43;;;;;;;9.63;2.17;;;;;;;17.79;51.53;102044.94;5047112;28;20035;-49
2022/05/13 09:49:36;;;;;;;8.05;1.95;;;;;;;18.00;50.88;102043.53;5043543;28;20143;-50
2022/05/13 09:52:08;;;;;;;8.68;1.92;;;;;;;18.07;49.91;102028.03;5042141;28;20016;-50
2022/05/13 09:54:36;;;;;;;8.57;1.77;;;;;;;18.26;49.57;102042.25;5042253;28;20155;-47
2022/05/13 09:57:27;;;;;;;13.50;1.85;;;;;;;18.33;48.38;102032.78;5043240;28;20110;-52
2022/05/13 09:59:56;;;;;;;12.30;1.65;;;;;;;18.36;46.72;102032.81;5040567;28;20067;-52
2022/05/13 10:02:35;;;;;;;8.25;1.45;;;;;;;18.50;47.52;102028.66;5044094;28;20486;-48
2022/05/13 10:05:25;;;;;;;10.18;1.80;;;;;;;18.64;47.02;102031.50;5043934;28;20037;-53
2022/05/13 10:07:51;;;;;;;3.72;1.35;;;;;;;18.48;46.95;102030.41;5041744;28;20109;-54
2022/05/13 10:16:07;;;;;;;6.80;1.65;;;;;;;18.21;47.06;102023.94;5042212;28;20500;-52
2022/05/13 10:18:37;;;;;;;6.13;1.20;;;;;;;18.19;47.63;102041.25;5042023;28;20029;-45
2022/05/13 10:21:09;;;;;;;7.35;1.50;;;;;;;18.23;47.10;102042.19;5040791;28;20055;-53
2022/05/13 10:23:55;;;;;;;6.45;1.52;;;;;;;18.23;47.47;102027.44;5047641;28;20028;-50
2022/05/13 10:26:26;;;;;;;4.80;1.27;;;;;;;18.13;46.76;102038.53;5046937;28;20048;-52
2022/05/13 10:29:16;;;;;;;8.25;1.42;;;;;;;18.10;47.79;102032.44;5045400;28;20025;-52
2022/05/13 10:31:44;;;;;;;4.90;1.30;;;;;;;18.03;47.61;102041.88;5045246;28;20044;-51
2022/05/13 10:34:38;;;;;;;5.47;1.67;;;;;;;18.04;48.56;102033.22;5048063;28;20025;-51
2022/05/13 10:37:39;;;;;;;4.78;1.40;;;;;;;18.06;48.07;102036.69;5044458;28;20700;-48
2022/05/13 10:40:12;;;;;;;5.75;1.50;;;;;;;17.96;47.63;102029.63;5012415;28;20048;-53
2022/05/13 10:42:42;;;;;;;9.45;1.80;;;;;;;17.92;47.40;102030.41;5045830;28;20020;-53
2022/05/13 10:45:21;;;;;;;6.57;1.38;;;;;;;17.98;47.12;102030.50;5044059;28;20048;-48
2022/05/13 10:47:54;;;;;;;4.63;1.52;;;;;;;17.97;47.62;102036.56;5047270;28;20067;-56
2022/05/13 10:50:41;;;;;;;8.32;1.63;;;;;;;18.09;48.46;102041.97;5046212;28;20024;-53
2022/05/13 10:53:24;;;;;;;9.48;1.70;;;;;;;18.11;47.23;102036.78;5045922;28;20041;-51
2022/05/13 10:56:14;;;;;;;7.43;1.65;;;;;;;18.14;47.38;102036.81;5045463;28;20028;-48
2022/05/13 10:58:42;;;;;;;6.75;1.60;;;;;;;18.10;47.82;102040.25;5044924;28;20492;-52
2022/05/13 11:01:29;;;;;;;7.18;1.58;;;;;;;18.19;47.50;102043.84;5046975;28;20020;-52
2022/05/13 11:04:21;;;;;;;7.95;1.67;;;;;;;18.31;47.07;102040.56;5042968;28;20025;-52
2022/05/13 11:07:06;;;;;;;7.80;1.40;;;;;;;18.49;47.28;102030.41;5037168;28;20041;-52
2022/05/13 11:09:46;;;;;;;4.88;1.27;;;;;;;18.50;45.90;102028.66;5048144;28;20079;-49
2022/05/13 11:12:23;;;;;;;7.50;1.70;;;;;;;18.47;45.83;102026.91;5046230;28;20023;-52
2022/05/13 11:15:01;;;;;;;5.13;1.40;;;;;;;18.47;44.66;102037.34;5047640;28;20044;-51
2022/05/13 11:17:57;;;;;;;6.65;1.17;;;;;;;18.54;45.10;102051.31;5044832;28;20028;-49
2022/05/13 11:20:35;;;;;;;7.05;1.13;;;;;;;18.52;44.61;102046.94;5041310;28;20044;-59
2022/05/13 11:23:24;;;;;;;5.47;1.25;;;;;;;18.67;45.47;102040.25;5043325;28;20120;-52
2022/05/13 11:26:28;;;;;;;4.28;0.98;;;;;;;18.93;44.94;102042.34;5047466;28;20080;-53
2022/05/13 11:29:18;;;;;;;6.78;1.40;;;;;;;19.09;44.55;102039.03;5051117;28;20045;-49
2022/05/13 11:31:52;;;;;;;4.65;1.00;;;;;;;18.92;42.81;102032.72;5041991;28;20033;-46
2022/05/13 11:34:33;;;;;;;4.07;1.00;;;;;;;18.83;44.30;102033.50;5048636;28;20370;-52
2022/05/13 11:37:05;;;;;;;5.53;1.08;;;;;;;18.77;44.98;102030.81;5044250;28;20024;-51
2022/05/13 11:39:45;;;;;;;6.03;1.20;;;;;;;18.75;45.55;102043.84;5046677;28;20128;-50
2022/05/13 11:42:32;;;;;;;5.35;1.45;;;;;;;18.79;45.03;102030.84;5043473;28;20064;-49
2022/05/13 11:45:39;;;;;;;6.15;1.30;;;;;;;18.71;45.37;102026.41;5046510;28;20025;-53
2022/05/13 11:48:28;;;;;;;5.88;1.33;;;;;;;18.77;45.08;102030.81;5050006;28;20060;-53
2022/05/13 11:51:14;;;;;;;6.10;1.10;;;;;;;18.89;44.44;102038.78;5047208;28;20028;-53
2022/05/13 11:53:42;;;;;;;4.78;1.30;;;;;;;19.02;43.42;102045.03;5048090;28;20260;-51
2022/05/13 11:56:38;;;;;;;5.50;1.20;;;;;;;19.21;43.70;102035.69;5045719;28;20033;-53